createdAt,value
2018-02-19T00:00:24.726Z,23.57
2018-02-19T00:02:52.186Z,22.37
2018-02-19T00:05:19.639Z,23.23
2018-02-19T00:07:47.102Z,21.67
2018-02-19T00:10:14.573Z,21.17
2018-02-19T00:12:42.036Z,23.53
2018-02-19T00:15:09.490Z,22.03
2018-02-19T00:17:36.947Z,22.13
2018-02-19T00:20:04.418Z,21.80
2018-02-19T00:22:31.869Z,21.53
2018-02-19T00:24:59.339Z,21.77
2018-02-19T00:27:26.794Z,23.47
2018-02-19T00:29:54.239Z,22.60
2018-02-19T00:32:21.718Z,23.13
2018-02-19T00:34:49.164Z,22.73
2018-02-19T00:37:17.386Z,21.67
2018-02-19T00:39:44.830Z,21.97
2018-02-19T00:42:13.063Z,22.97
2018-02-19T00:44:40.536Z,21.73
2018-02-19T00:47:07.986Z,22.67
2018-02-19T00:49:35.439Z,21.07
2018-02-19T00:52:02.897Z,22.67
2018-02-19T00:54:30.359Z,22.93
2018-02-19T00:56:57.810Z,23.43
2018-02-19T00:59:25.291Z,21.73
2018-02-19T01:01:52.744Z,21.93
2018-02-19T01:04:20.203Z,22.07
2018-02-19T01:06:47.647Z,23.63
2018-02-19T01:09:15.112Z,22.50
2018-02-19T01:11:42.571Z,24.13
2018-02-19T01:14:10.038Z,22.27
2018-02-19T01:16:37.491Z,22.03
2018-02-19T01:19:04.950Z,21.50
2018-02-19T01:21:32.409Z,23.20
2018-02-19T01:23:59.870Z,23.43
2018-02-19T01:26:27.317Z,23.70
2018-02-19T01:28:54.765Z,21.07
2018-02-19T01:31:22.999Z,22.20
2018-02-19T01:33:51.210Z,21.87
2018-02-19T01:36:18.679Z,22.80
2018-02-19T01:38:46.111Z,21.90
2018-02-19T01:41:13.568Z,22.80
2018-02-19T01:43:41.032Z,23.33
2018-02-19T01:46:08.535Z,24.33
2018-02-19T01:48:36.761Z,22.57
2018-02-19T01:51:04.222Z,22.00
2018-02-19T01:53:31.682Z,22.73
2018-02-19T01:55:59.141Z,22.23
2018-02-19T01:58:26.590Z,22.00
2018-02-19T02:00:54.045Z,21.73
2018-02-19T02:03:21.502Z,21.30
2018-02-19T02:05:49.728Z,21.43
2018-02-19T02:08:17.188Z,22.00
2018-02-19T02:10:44.641Z,22.43
2018-02-19T02:13:12.094Z,22.93
2018-02-19T02:15:39.529Z,23.03
2018-02-19T02:18:07.763Z,22.17
2018-02-19T02:20:35.219Z,20.90
2018-02-19T02:23:02.698Z,21.87
2018-02-19T02:25:30.256Z,22.07
2018-02-19T02:27:57.710Z,22.23
2018-02-19T02:30:25.191Z,22.97
2018-02-19T02:32:52.643Z,22.77
2018-02-19T02:35:20.100Z,20.13
2018-02-19T02:37:47.597Z,20.90
2018-02-19T02:40:15.064Z,22.10
2018-02-19T02:42:42.514Z,23.50
2018-02-19T02:45:09.958Z,21.60
2018-02-19T02:47:37.418Z,20.87
2018-02-19T02:50:04.856Z,21.37
2018-02-19T02:52:32.324Z,20.40
2018-02-19T02:54:59.767Z,21.97
2018-02-19T02:57:27.238Z,22.53
2018-02-19T02:59:54.715Z,20.70
2018-02-19T03:02:22.171Z,21.87
2018-02-19T03:04:49.669Z,20.07
2018-02-19T03:07:17.148Z,22.20
2018-02-19T03:09:44.586Z,22.60
2018-02-19T03:12:12.042Z,21.83
2018-02-19T03:14:39.508Z,22.83
2018-02-19T03:17:06.963Z,20.93
2018-02-19T03:19:34.407Z,21.03
2018-02-19T03:22:01.871Z,21.37
2018-02-19T03:24:29.334Z,21.43
2018-02-19T03:26:56.790Z,21.07
2018-02-19T03:31:58.137Z,20.50
2018-02-19T03:34:26.375Z,20.60
2018-02-19T03:36:53.828Z,21.60
2018-02-19T03:39:21.294Z,21.87
2018-02-19T03:41:48.748Z,21.13
2018-02-19T03:44:16.211Z,21.80
2018-02-19T03:46:43.666Z,21.67
2018-02-19T03:49:11.122Z,21.47
2018-02-19T03:51:39.350Z,22.07
2018-02-19T03:54:06.813Z,20.50
2018-02-19T03:56:34.259Z,21.07
2018-02-19T03:59:01.740Z,21.57
2018-02-19T04:01:29.178Z,21.80
2018-02-19T04:03:56.637Z,19.07
2018-02-19T04:06:24.077Z,20.67
2018-02-19T04:08:51.542Z,20.90
2018-02-19T04:11:19.000Z,20.33
2018-02-19T04:13:46.470Z,21.20
2018-02-19T04:16:13.951Z,20.30
2018-02-19T04:18:41.413Z,20.37
2018-02-19T04:21:08.857Z,20.97
2018-02-19T04:23:36.302Z,19.37
2018-02-19T04:26:03.759Z,19.80
2018-02-19T04:28:31.996Z,19.83
2018-02-19T04:30:59.439Z,19.50
2018-02-19T04:33:26.903Z,20.07
2018-02-19T04:35:54.356Z,18.80
2018-02-19T04:38:21.813Z,20.03
2018-02-19T04:40:49.262Z,20.13
2018-02-19T04:43:16.701Z,19.83
2018-02-19T04:45:50.648Z,18.20
2018-02-19T04:48:18.091Z,19.00
2018-02-19T04:50:45.538Z,19.17
2018-02-19T04:53:13.751Z,20.27
2018-02-19T04:55:41.212Z,21.40
2018-02-19T04:58:08.655Z,20.70
2018-02-19T05:00:36.899Z,18.80
2018-02-19T05:03:04.392Z,20.73
2018-02-19T05:05:31.815Z,20.00
2018-02-19T05:07:59.279Z,20.63
2018-02-19T05:10:26.745Z,20.37
2018-02-19T05:12:54.191Z,20.80
2018-02-19T05:15:21.649Z,21.37
2018-02-19T05:17:49.874Z,20.53
2018-02-19T05:20:18.090Z,21.67
2018-02-19T05:22:45.551Z,20.97
2018-02-19T05:25:13.006Z,19.70
2018-02-19T05:27:40.468Z,20.33
2018-02-19T05:30:07.930Z,20.33
2018-02-19T05:32:35.376Z,21.27
2018-02-19T05:35:03.632Z,20.60
2018-02-19T05:37:31.086Z,20.13
2018-02-19T05:39:58.544Z,21.00
2018-02-19T05:42:26.015Z,21.13
2018-02-19T05:44:53.479Z,21.20
2018-02-19T05:47:20.938Z,21.03
2018-02-19T05:49:48.387Z,21.93
2018-02-19T05:52:15.846Z,21.07
2018-02-19T05:54:43.303Z,20.87
2018-02-19T05:57:10.753Z,20.77
2018-02-19T05:59:38.229Z,20.43
2018-02-19T06:02:05.710Z,20.90
2018-02-19T06:04:33.949Z,21.37
2018-02-19T06:07:01.396Z,21.50
2018-02-19T06:09:29.616Z,21.20
2018-02-19T06:11:57.083Z,20.87
2018-02-19T06:14:24.523Z,21.20
2018-02-19T06:16:51.975Z,21.50
2018-02-19T06:19:19.438Z,19.30
2018-02-19T06:21:46.871Z,22.77
2018-02-19T06:24:14.325Z,22.00
2018-02-19T06:26:41.789Z,22.17
2018-02-19T06:29:09.266Z,21.13
2018-02-19T06:31:37.488Z,22.07
2018-02-19T06:34:04.958Z,20.57
2018-02-19T06:36:32.410Z,23.07
2018-02-19T06:38:59.872Z,23.97
2018-02-19T06:41:27.330Z,23.77
2018-02-19T06:43:54.795Z,22.70
2018-02-19T06:46:22.241Z,22.50
2018-02-19T06:48:49.823Z,24.23
2018-02-19T06:51:17.272Z,24.87
2018-02-19T06:53:44.722Z,23.80
2018-02-19T06:56:12.946Z,23.77
2018-02-19T06:58:40.427Z,23.27
2018-02-19T07:01:07.916Z,24.90
2018-02-19T07:03:35.406Z,24.37
2018-02-19T07:06:02.859Z,23.57
2018-02-19T07:08:31.074Z,24.50
2018-02-19T07:10:59.296Z,23.13
2018-02-19T07:13:26.741Z,23.93
2018-02-19T07:15:54.170Z,24.03
2018-02-19T07:18:21.609Z,24.70
2018-02-19T07:20:49.076Z,23.80
2018-02-19T07:23:16.547Z,25.87
2018-02-19T07:25:43.991Z,25.03
2018-02-19T07:28:12.197Z,23.80
2018-02-19T07:30:39.674Z,25.80
2018-02-19T07:33:07.140Z,24.43
2018-02-19T07:35:34.614Z,24.67
2018-02-19T07:38:02.067Z,25.37
2018-02-19T07:40:29.522Z,24.83
2018-02-19T07:42:56.970Z,25.57
2018-02-19T07:45:24.432Z,24.37
2018-02-19T07:47:51.877Z,25.13
2018-02-19T07:50:19.406Z,25.13
2018-02-19T07:52:46.788Z,27.10
2018-02-19T07:55:14.998Z,26.23
2018-02-19T07:57:42.480Z,26.77
2018-02-19T08:00:09.923Z,25.07
2018-02-19T08:02:37.371Z,25.27
2018-02-19T08:05:04.846Z,24.03
2018-02-19T08:07:32.290Z,25.70
2018-02-19T08:10:00.540Z,26.70
2018-02-19T08:12:28.089Z,26.57
2018-02-19T08:14:56.244Z,29.90
2018-02-19T08:17:23.704Z,27.00
2018-02-19T08:19:51.158Z,26.70
2018-02-19T08:22:18.616Z,26.17
2018-02-19T08:24:46.069Z,27.73
2018-02-19T08:27:14.293Z,26.90
2018-02-19T08:29:41.800Z,25.40
2018-02-19T08:32:09.209Z,24.13
2018-02-19T08:34:37.514Z,24.63
2018-02-19T08:37:05.961Z,25.97
2018-02-19T08:39:33.409Z,26.40
2018-02-19T08:42:00.863Z,26.10
2018-02-19T08:44:29.107Z,26.83
2018-02-19T08:46:56.545Z,27.20
2018-02-19T08:49:24.002Z,26.17
2018-02-19T08:51:51.467Z,27.13
2018-02-19T08:54:18.928Z,26.37
2018-02-19T08:56:46.394Z,26.53
2018-02-19T08:59:13.857Z,25.50
2018-02-19T09:01:41.335Z,24.13
2018-02-19T09:04:08.769Z,25.00
2018-02-19T09:06:36.227Z,26.90
2018-02-19T09:09:03.696Z,27.33
2018-02-19T09:11:31.139Z,27.60
2018-02-19T09:13:59.356Z,26.20
2018-02-19T09:16:26.815Z,26.90
2018-02-19T09:18:54.364Z,26.13
2018-02-19T09:21:21.827Z,26.53
2018-02-19T09:23:49.267Z,26.17
2018-02-19T09:26:16.722Z,26.37
2018-02-19T09:28:44.944Z,26.10
2018-02-19T09:31:12.394Z,26.77
2018-02-19T09:33:39.866Z,26.37
2018-02-19T09:36:07.320Z,25.77
2018-02-19T09:38:34.773Z,27.13
2018-02-19T09:41:02.229Z,27.40
2018-02-19T09:46:08.348Z,25.57
2018-02-19T09:48:35.804Z,25.50
2018-02-19T09:51:03.264Z,27.60
2018-02-19T09:53:30.723Z,25.23
2018-02-19T09:55:58.172Z,25.93
2018-02-19T09:58:25.636Z,27.67
2018-02-19T10:00:53.079Z,27.73
2018-02-19T10:03:21.294Z,27.47
2018-02-19T10:05:48.747Z,26.07
2018-02-19T10:08:16.195Z,25.63
2018-02-19T10:10:43.653Z,26.47
2018-02-19T10:13:11.091Z,28.90
2018-02-19T10:15:39.319Z,26.07
2018-02-19T10:18:06.784Z,24.70
2018-02-19T10:20:34.246Z,26.57
2018-02-19T10:23:01.693Z,26.30
2018-02-19T10:25:29.174Z,26.47
2018-02-19T10:27:56.616Z,26.53
2018-02-19T10:30:24.093Z,25.50
2018-02-19T10:32:52.265Z,26.63
2018-02-19T10:35:19.760Z,29.23
2018-02-19T10:37:47.195Z,26.63
2018-02-19T10:40:14.662Z,26.27
2018-02-19T10:42:42.124Z,25.43
2018-02-19T10:45:09.608Z,27.03
2018-02-19T10:47:37.071Z,25.60
2018-02-19T10:50:04.540Z,26.17
2018-02-19T10:52:31.985Z,26.93
2018-02-19T10:54:59.434Z,27.77
2018-02-19T10:57:26.894Z,25.87
2018-02-19T10:59:54.352Z,26.93
2018-02-19T11:02:21.820Z,26.53
2018-02-19T11:04:49.270Z,27.63
2018-02-19T11:07:16.717Z,26.30
2018-02-19T11:09:44.946Z,26.57
2018-02-19T11:12:12.380Z,26.17
2018-02-19T11:14:39.847Z,26.03
2018-02-19T11:17:07.274Z,26.10
2018-02-19T11:19:35.490Z,26.20
2018-02-19T11:22:02.971Z,26.40
2018-02-19T11:24:30.547Z,27.97
2018-02-19T11:26:58.007Z,26.70
2018-02-19T11:29:25.464Z,25.20
2018-02-19T11:31:52.946Z,26.57
2018-02-19T11:34:20.407Z,26.63
2018-02-19T11:36:47.863Z,27.20
2018-02-19T11:39:15.376Z,26.23
2018-02-19T11:41:42.775Z,26.53
2018-02-19T11:44:10.232Z,27.03
2018-02-19T11:46:37.692Z,26.60
2018-02-19T11:49:05.173Z,25.70
2018-02-19T11:51:32.647Z,27.00
2018-02-19T11:54:00.079Z,27.17
2018-02-19T11:56:27.527Z,25.17
2018-02-19T11:58:55.004Z,26.17
2018-02-19T12:01:22.454Z,26.17
2018-02-19T12:03:49.908Z,26.13
2018-02-19T12:06:17.360Z,26.60
2018-02-19T12:08:45.644Z,26.87
2018-02-19T12:11:13.162Z,26.80
2018-02-19T12:13:40.627Z,25.00
2018-02-19T12:16:08.065Z,27.40
2018-02-19T12:18:35.526Z,26.67
2018-02-19T12:21:02.969Z,26.10
2018-02-19T12:23:30.451Z,27.60
2018-02-19T12:25:57.912Z,26.70
2018-02-19T12:28:25.354Z,27.27
2018-02-19T12:30:52.875Z,26.97
2018-02-19T12:33:20.318Z,27.30
2018-02-19T12:35:47.785Z,25.83
2018-02-19T12:38:15.225Z,26.60
2018-02-19T12:40:45.758Z,26.37
2018-02-19T12:43:13.186Z,26.53
2018-02-19T12:45:41.438Z,26.47
2018-02-19T12:48:08.933Z,28.00
2018-02-19T12:50:37.176Z,26.50
2018-02-19T12:53:04.639Z,27.30
2018-02-19T12:55:32.111Z,27.07
2018-02-19T12:57:59.591Z,27.20
2018-02-19T13:00:27.829Z,26.50
2018-02-19T13:02:55.285Z,27.57
2018-02-19T13:05:22.726Z,25.83
2018-02-19T13:07:50.185Z,25.00
2018-02-19T13:10:17.628Z,26.37
2018-02-19T13:12:45.864Z,25.97
2018-02-19T13:15:13.319Z,27.90
2018-02-19T13:17:40.788Z,27.77
2018-02-19T13:20:08.242Z,26.83
2018-02-19T13:22:35.798Z,26.80
2018-02-19T13:25:03.253Z,26.57
2018-02-19T13:27:30.695Z,27.43
2018-02-19T13:29:58.158Z,26.77
2018-02-19T13:32:26.399Z,26.30
2018-02-19T13:34:53.893Z,27.67
2018-02-19T13:37:22.116Z,26.03
2018-02-19T13:39:49.565Z,27.17
2018-02-19T13:42:17.006Z,27.07
2018-02-19T13:44:45.236Z,25.30
2018-02-19T13:47:12.678Z,27.43
2018-02-19T13:49:40.132Z,27.57
2018-02-19T13:52:08.351Z,25.93
2018-02-19T13:54:35.808Z,25.90
2018-02-19T13:57:03.285Z,26.07
2018-02-19T13:59:31.556Z,26.40
2018-02-19T14:01:58.993Z,25.23
2018-02-19T14:04:26.444Z,25.70
2018-02-19T14:06:53.896Z,26.53
2018-02-19T14:09:21.348Z,24.47
2018-02-19T14:11:49.577Z,26.77
2018-02-19T14:14:17.034Z,25.77
2018-02-19T14:16:45.263Z,25.63
2018-02-19T14:19:13.469Z,24.60
2018-02-19T14:21:40.941Z,25.77
2018-02-19T14:24:08.404Z,25.33
2018-02-19T14:26:35.855Z,25.60
2018-02-19T14:29:03.342Z,24.93
2018-02-19T14:31:30.804Z,23.97
2018-02-19T14:33:58.265Z,24.10
2018-02-19T14:36:25.723Z,24.63
2018-02-19T14:38:53.203Z,24.47
2018-02-19T14:41:20.653Z,23.60
2018-02-19T14:43:48.104Z,23.87
2018-02-19T14:46:15.558Z,24.30
2018-02-19T14:48:43.045Z,24.57
2018-02-19T14:51:10.500Z,23.43
2018-02-19T14:53:37.970Z,23.87
2018-02-19T14:56:06.195Z,24.97
2018-02-19T14:58:34.407Z,24.57
2018-02-19T15:01:01.892Z,24.63
2018-02-19T15:03:29.330Z,23.53
2018-02-19T15:05:56.777Z,23.57
2018-02-19T15:08:24.258Z,24.27
2018-02-19T15:10:51.706Z,24.63
2018-02-19T15:13:19.184Z,24.43
2018-02-19T15:15:46.672Z,24.90
2018-02-19T15:18:14.141Z,24.43
2018-02-19T15:20:42.401Z,23.27
2018-02-19T15:23:09.868Z,25.87
2018-02-19T15:25:37.318Z,26.50
2018-02-19T15:28:04.784Z,25.63
2018-02-19T15:30:32.249Z,24.77
2018-02-19T15:32:59.713Z,25.20
2018-02-19T15:35:27.191Z,25.10
2018-02-19T15:37:54.641Z,23.53
2018-02-19T15:40:22.103Z,24.70
2018-02-19T15:42:49.573Z,24.00
2018-02-19T15:45:17.034Z,24.97
2018-02-19T15:47:44.491Z,26.23
2018-02-19T15:50:11.943Z,24.60
2018-02-19T15:52:39.408Z,25.57
2018-02-19T15:55:06.849Z,25.77
2018-02-19T15:57:34.315Z,24.93
2018-02-19T16:00:01.780Z,24.93
2018-02-19T16:02:29.237Z,23.93
2018-02-19T16:04:57.459Z,25.03
2018-02-19T16:07:24.910Z,26.53
2018-02-19T16:09:52.372Z,25.50
2018-02-19T16:12:19.822Z,24.97
2018-02-19T16:14:47.296Z,24.87
2018-02-19T16:17:14.751Z,27.23
2018-02-19T16:19:42.194Z,26.03
2018-02-19T16:22:10.427Z,24.60
2018-02-19T16:24:37.879Z,24.37
2018-02-19T16:27:05.335Z,25.13
2018-02-19T16:29:32.798Z,24.70
2018-02-19T16:32:00.282Z,25.33
2018-02-19T16:34:27.755Z,24.73
2018-02-19T16:36:55.195Z,24.00
2018-02-19T16:39:22.667Z,22.20
2018-02-19T16:41:50.114Z,24.33
2018-02-19T16:44:17.574Z,23.77
2018-02-19T16:46:45.070Z,23.03
2018-02-19T16:49:12.540Z,24.10
2018-02-19T16:51:40.005Z,24.50
2018-02-19T16:54:07.487Z,24.67
2018-02-19T16:56:35.702Z,24.67
2018-02-19T16:59:03.163Z,24.07
2018-02-19T17:01:30.641Z,24.97
2018-02-19T17:03:58.115Z,23.73
2018-02-19T17:06:26.379Z,24.13
2018-02-19T17:08:53.835Z,25.70
2018-02-19T17:11:21.276Z,24.47
2018-02-19T17:13:48.722Z,25.50
2018-02-19T17:16:16.931Z,24.47
2018-02-19T17:18:44.401Z,25.33
2018-02-19T17:21:12.631Z,24.27
2018-02-19T17:23:40.093Z,24.03
2018-02-19T17:26:07.559Z,24.70
2018-02-19T17:28:34.995Z,24.23
2018-02-19T17:31:02.477Z,22.60
2018-02-19T17:33:29.897Z,25.57
2018-02-19T17:35:57.352Z,25.00
2018-02-19T17:38:24.830Z,25.50
2018-02-19T17:40:52.278Z,25.73
2018-02-19T17:43:19.748Z,24.13
2018-02-19T17:45:47.199Z,24.57
2018-02-19T17:48:14.646Z,25.73
2018-02-19T17:50:42.120Z,25.20
2018-02-19T17:53:09.588Z,25.53
2018-02-19T17:55:37.058Z,26.03
2018-02-19T17:58:04.540Z,23.00
2018-02-19T18:00:31.978Z,25.17
2018-02-19T18:02:59.498Z,27.20
2018-02-19T18:05:26.935Z,26.23
2018-02-19T18:07:54.382Z,27.40
2018-02-19T18:10:21.855Z,25.37
2018-02-19T18:12:49.329Z,25.57
2018-02-19T18:15:16.790Z,23.73
2018-02-19T18:17:44.251Z,26.53
2018-02-19T18:20:11.711Z,26.90
2018-02-19T18:22:39.166Z,25.17
2018-02-19T18:25:06.624Z,26.53
2018-02-19T18:27:34.099Z,25.13
2018-02-19T18:30:01.581Z,25.30
2018-02-19T18:32:29.055Z,27.20
2018-02-19T18:34:57.258Z,26.00
2018-02-19T18:37:24.763Z,27.00
2018-02-19T18:39:52.233Z,25.87
2018-02-19T18:42:19.745Z,25.73
2018-02-19T18:44:47.238Z,25.13
2018-02-19T18:47:14.908Z,25.60
2018-02-19T18:49:42.426Z,26.03
2018-02-19T18:52:10.662Z,25.03
2018-02-19T18:54:38.142Z,24.93
2018-02-19T18:57:05.636Z,27.07
2018-02-19T18:59:33.861Z,26.70
2018-02-19T19:02:02.172Z,25.10
2018-02-19T19:04:29.645Z,24.43
2018-02-19T19:06:57.112Z,25.67
2018-02-19T19:09:36.566Z,24.73
2018-02-19T19:12:04.037Z,25.70
2018-02-19T19:14:31.516Z,25.53
2018-02-19T19:16:58.995Z,25.40
2018-02-19T19:19:26.489Z,24.07
2018-02-19T19:21:53.945Z,24.50
2018-02-19T19:24:21.398Z,25.50
2018-02-19T19:26:48.910Z,24.57
2018-02-19T19:29:16.371Z,26.13
2018-02-19T19:31:44.606Z,24.13
2018-02-19T19:34:12.116Z,24.67
2018-02-19T19:36:40.392Z,24.90
2018-02-19T19:39:08.607Z,23.67
2018-02-19T19:41:36.090Z,23.60
2018-02-19T19:44:03.595Z,25.37
2018-02-19T19:46:31.866Z,24.30
2018-02-19T19:49:00.119Z,20.97
2018-02-19T19:51:27.593Z,24.23
2018-02-19T19:53:55.067Z,22.37
2018-02-19T19:56:22.586Z,26.53
2018-02-19T19:58:50.092Z,22.93
2018-02-19T20:01:17.610Z,23.40
2018-02-19T20:03:45.104Z,23.77
2018-02-19T20:06:12.564Z,24.53
2018-02-19T20:08:40.039Z,24.10
2018-02-19T20:11:07.510Z,24.00
2018-02-19T20:13:35.006Z,23.30
2018-02-19T20:16:02.524Z,21.70
2018-02-19T20:18:30.001Z,22.50
2018-02-19T20:20:57.469Z,24.30
2018-02-19T20:23:24.923Z,21.33
2018-02-19T20:25:52.403Z,24.70
2018-02-19T20:28:19.872Z,24.60
2018-02-19T20:30:48.120Z,24.83
2018-02-19T20:33:15.591Z,24.33
2018-02-19T20:35:43.042Z,23.47
2018-02-19T20:38:10.473Z,26.23
2018-02-19T20:40:37.978Z,25.90
2018-02-19T20:43:05.430Z,25.37
2018-02-19T20:45:32.918Z,25.17
2018-02-19T20:48:01.174Z,26.90
2018-02-19T20:50:28.642Z,24.77
2018-02-19T20:52:56.112Z,23.90
2018-02-19T20:55:23.564Z,22.23
2018-02-19T20:57:51.025Z,23.73
2018-02-19T21:00:19.235Z,25.33
2018-02-19T21:02:47.477Z,24.13
2018-02-19T21:05:14.935Z,22.73
2018-02-19T21:07:43.142Z,23.57
2018-02-19T21:10:10.580Z,24.30
2018-02-19T21:12:38.035Z,24.37
2018-02-19T21:15:05.521Z,26.17
2018-02-19T21:17:32.963Z,22.70
2018-02-19T21:20:00.465Z,24.83
2018-02-19T21:22:27.950Z,22.30
2018-02-19T21:24:55.400Z,22.70
2018-02-19T21:27:23.647Z,27.07
2018-02-19T21:29:51.104Z,25.37
2018-02-19T21:32:18.564Z,25.30
2018-02-19T21:34:46.046Z,25.90
2018-02-19T21:37:13.505Z,25.77
2018-02-19T21:39:40.972Z,23.43
2018-02-19T21:42:09.147Z,26.13
2018-02-19T21:44:36.619Z,24.40
2018-02-19T21:47:04.064Z,26.33
2018-02-19T21:49:31.523Z,25.77
2018-02-19T21:51:59.002Z,25.07
2018-02-19T21:54:26.459Z,25.23
2018-02-19T21:56:53.904Z,26.47
2018-02-19T21:59:21.492Z,25.40
2018-02-19T22:01:49.740Z,25.10
2018-02-19T22:04:17.187Z,23.50
2018-02-19T22:06:44.656Z,25.17
2018-02-19T22:09:12.088Z,24.70
2018-02-19T22:11:40.361Z,25.20
2018-02-19T22:14:08.582Z,25.00
2018-02-19T22:16:36.045Z,22.83
2018-02-19T22:19:03.499Z,24.30
2018-02-19T22:21:30.964Z,24.20
2018-02-19T22:23:58.421Z,25.50
2018-02-19T22:26:25.897Z,25.87
2018-02-19T22:28:53.351Z,25.03
2018-02-19T22:31:20.815Z,25.10
2018-02-19T22:33:48.261Z,23.97
2018-02-19T22:36:15.742Z,25.00
2018-02-19T22:38:43.204Z,25.00
2018-02-19T22:41:10.651Z,24.57
2018-02-19T22:43:38.107Z,24.63
2018-02-19T22:46:06.327Z,24.37
2018-02-19T22:48:33.789Z,24.13
2018-02-19T22:51:01.258Z,24.90
2018-02-19T22:53:28.716Z,22.80
2018-02-19T22:55:56.171Z,24.53
2018-02-19T22:58:23.629Z,25.70
2018-02-19T23:00:51.137Z,23.90
2018-02-19T23:03:18.596Z,21.30
2018-02-19T23:05:46.021Z,21.93
2018-02-19T23:08:13.486Z,24.27
2018-02-19T23:10:40.947Z,24.07
2018-02-19T23:13:08.411Z,23.93
2018-02-19T23:15:35.859Z,23.37
2018-02-19T23:18:03.307Z,23.43
2018-02-19T23:20:30.754Z,22.40
2018-02-19T23:22:59.004Z,23.37
2018-02-19T23:25:26.452Z,24.50
2018-02-19T23:27:53.941Z,23.00
2018-02-19T23:30:21.420Z,23.07
2018-02-19T23:32:49.676Z,22.17
2018-02-19T23:35:17.103Z,22.47
2018-02-19T23:37:44.582Z,23.10
2018-02-19T23:40:12.028Z,23.90
2018-02-19T23:42:39.478Z,23.60
2018-02-19T23:45:06.930Z,23.90
2018-02-19T23:47:34.367Z,22.83
2018-02-19T23:50:01.830Z,23.97
2018-02-19T23:52:29.276Z,21.90
2018-02-19T23:54:56.738Z,24.17
2018-02-19T23:57:24.186Z,22.97
2018-02-19T23:59:51.635Z,21.00
